createdAt,value
2024-05-09T00:01:00.699Z,52.43
2024-05-09T00:03:10.386Z,51.82
2024-05-09T00:05:14.989Z,53.37
2024-05-09T00:07:17.130Z,53.12
2024-05-09T00:09:19.184Z,54.92
2024-05-09T00:11:21.365Z,53.84
2024-05-09T00:13:23.396Z,53.39
2024-05-09T00:15:25.395Z,53.76
2024-05-09T00:17:27.901Z,53.52
2024-05-09T00:19:30.147Z,57.88
2024-05-09T00:21:32.739Z,59.64
2024-05-09T00:23:34.816Z,61.57
2024-05-09T00:25:38.208Z,60.89
2024-05-09T00:27:40.201Z,61.06
2024-05-09T00:29:42.810Z,61.45
2024-05-09T00:31:45.037Z,59.58
2024-05-09T00:33:47.173Z,59.67
2024-05-09T00:35:49.377Z,58.57
2024-05-09T00:37:51.461Z,57.78
2024-05-09T00:39:53.516Z,55.40
2024-05-09T00:41:55.514Z,54.37
2024-05-09T00:43:57.507Z,53.45
2024-05-09T00:45:59.978Z,52.93
2024-05-09T00:48:04.255Z,51.83
2024-05-09T00:50:12.630Z,51.10
2024-05-09T00:52:17.873Z,51.26
2024-05-09T00:54:20.272Z,50.58
2024-05-09T00:56:22.636Z,50.65
2024-05-09T00:58:26.317Z,50.24
2024-05-09T01:00:35.731Z,49.29
2024-05-09T01:02:41.773Z,50.08
2024-05-09T01:04:44.006Z,50.33
2024-05-09T01:06:46.090Z,50.71
2024-05-09T01:08:48.392Z,50.30
2024-05-09T01:10:50.505Z,49.62
2024-05-09T01:12:52.618Z,49.92
2024-05-09T01:14:55.294Z,49.31
2024-05-09T01:16:58.128Z,49.39
2024-05-09T01:19:04.834Z,49.74
2024-05-09T01:21:07.059Z,49.72
2024-05-09T01:23:10.168Z,48.99
2024-05-09T01:25:13.514Z,49.14
2024-05-09T01:27:15.922Z,49.08
2024-05-09T01:29:18.634Z,49.18
2024-05-09T01:31:21.420Z,49.41
2024-05-09T01:33:23.987Z,48.86
2024-05-09T01:35:26.800Z,49.12
2024-05-09T01:37:28.915Z,49.35
2024-05-09T01:39:30.936Z,49.47
2024-05-09T01:41:32.997Z,49.68
2024-05-09T01:43:34.975Z,49.94
2024-05-09T01:45:37.113Z,49.75
2024-05-09T01:47:39.271Z,50.18
2024-05-09T01:49:41.446Z,50.46
2024-05-09T01:51:43.630Z,50.39
2024-05-09T01:53:45.905Z,50.31
2024-05-09T01:55:48.021Z,50.72
2024-05-09T01:57:50.036Z,51.24
2024-05-09T01:59:52.056Z,51.48
2024-05-09T02:01:56.990Z,51.03
2024-05-09T02:04:00.042Z,51.71
2024-05-09T02:06:02.359Z,52.48
2024-05-09T02:08:05.503Z,54.27
2024-05-09T02:10:13.800Z,57.45
2024-05-09T02:12:18.966Z,58.07
2024-05-09T02:14:21.300Z,57.88
2024-05-09T02:16:23.357Z,56.91
2024-05-09T02:18:25.538Z,58.07
2024-05-09T02:20:34.224Z,57.61
2024-05-09T02:22:38.817Z,56.89
2024-05-09T02:24:40.827Z,54.87
2024-05-09T02:26:42.802Z,54.40
2024-05-09T02:28:44.935Z,56.66
2024-05-09T02:30:46.964Z,57.56
2024-05-09T02:32:49.561Z,57.54
2024-05-09T02:34:51.873Z,56.49
2024-05-09T02:36:53.840Z,55.57
2024-05-09T02:38:55.807Z,54.31
2024-05-09T02:40:57.877Z,54.00
2024-05-09T02:43:00.620Z,53.72
2024-05-09T02:45:02.609Z,53.04
2024-05-09T02:47:04.836Z,52.93
2024-05-09T02:49:06.975Z,52.45
2024-05-09T02:51:09.198Z,52.58
2024-05-09T02:53:11.909Z,51.97
2024-05-09T02:55:14.078Z,51.89
2024-05-09T02:57:17.138Z,51.59
2024-05-09T02:59:19.224Z,51.26
2024-05-09T03:01:21.394Z,51.28
2024-05-09T03:03:23.789Z,52.52
2024-05-09T03:05:26.214Z,55.09
2024-05-09T03:07:28.297Z,54.04
2024-05-09T03:09:30.296Z,54.14
2024-05-09T03:11:33.369Z,52.96
2024-05-09T03:13:35.379Z,52.67
2024-05-09T03:15:37.502Z,52.43
2024-05-09T03:17:42.528Z,51.11
2024-05-09T03:19:44.652Z,51.02
2024-05-09T03:21:46.841Z,50.66
2024-05-09T03:23:49.136Z,50.60
2024-05-09T03:25:51.363Z,51.14
2024-05-09T03:27:53.914Z,50.60
2024-05-09T03:29:55.896Z,50.17
2024-05-09T03:31:58.946Z,50.38
2024-05-09T03:34:01.694Z,50.34
2024-05-09T03:36:06.867Z,50.34
2024-05-09T03:38:11.051Z,50.37
2024-05-09T03:40:20.486Z,50.68
2024-05-09T03:42:25.773Z,50.00
2024-05-09T03:44:27.893Z,51.04
2024-05-09T03:46:29.936Z,51.49
2024-05-09T03:48:35.344Z,51.27
2024-05-09T03:50:37.788Z,49.86
2024-05-09T03:52:40.024Z,48.58
2024-05-09T03:54:45.902Z,48.68
2024-05-09T03:56:47.874Z,48.11
2024-05-09T03:58:50.103Z,47.46
2024-05-09T04:00:52.230Z,45.76
2024-05-09T04:02:54.373Z,45.80
2024-05-09T04:04:56.418Z,45.96
2024-05-09T04:06:58.543Z,50.39
2024-05-09T04:09:00.511Z,45.40
2024-05-09T04:11:02.778Z,46.93
2024-05-09T04:13:05.108Z,45.02
2024-05-09T04:15:09.651Z,45.23
2024-05-09T04:17:14.057Z,44.98
2024-05-09T04:19:16.616Z,44.80
2024-05-09T04:21:18.826Z,44.07
2024-05-09T04:23:21.025Z,44.41
2024-05-09T04:25:23.158Z,43.95
2024-05-09T04:27:25.248Z,45.53
2024-05-09T04:29:27.426Z,43.99
2024-05-09T04:31:29.638Z,43.46
2024-05-09T04:33:32.082Z,42.38
2024-05-09T04:35:34.774Z,45.11
2024-05-09T04:37:37.617Z,43.52
2024-05-09T04:39:40.052Z,42.74
2024-05-09T04:41:42.070Z,42.41
2024-05-09T04:43:44.240Z,43.13
2024-05-09T04:45:46.758Z,43.20
2024-05-09T04:47:48.978Z,42.13
2024-05-09T04:49:51.196Z,42.36
2024-05-09T04:51:53.264Z,41.95
2024-05-09T04:53:55.324Z,43.62
2024-05-09T04:55:57.445Z,43.10
2024-05-09T04:57:59.426Z,42.32
2024-05-09T05:00:01.414Z,42.33
2024-05-09T05:02:03.587Z,41.40
2024-05-09T05:04:05.738Z,42.23
2024-05-09T05:06:08.272Z,42.73
2024-05-09T05:08:19.073Z,42.79
2024-05-09T05:10:29.425Z,41.42
2024-05-09T05:12:37.213Z,42.82
2024-05-09T05:14:39.375Z,42.91
2024-05-09T05:16:41.411Z,41.99
2024-05-09T05:18:43.492Z,42.35
2024-05-09T05:20:45.832Z,42.40
2024-05-09T05:22:47.964Z,41.77
2024-05-09T05:24:49.961Z,42.27
2024-05-09T05:26:51.981Z,41.55
2024-05-09T05:28:56.651Z,41.54
2024-05-09T05:30:58.629Z,41.48
2024-05-09T05:33:01.073Z,41.82
2024-05-09T05:35:03.396Z,41.78
2024-05-09T05:37:05.934Z,40.79
2024-05-09T05:39:07.974Z,41.97
2024-05-09T05:41:10.301Z,42.12
2024-05-09T05:43:19.267Z,41.66
2024-05-09T05:45:21.424Z,40.75
2024-05-09T05:47:23.654Z,41.31
2024-05-09T05:49:26.888Z,42.16
2024-05-09T05:51:29.067Z,42.74
2024-05-09T05:53:31.339Z,42.72
2024-05-09T05:55:33.484Z,41.16
2024-05-09T05:57:35.530Z,41.71
2024-05-09T05:59:37.538Z,41.16
2024-05-09T06:01:39.633Z,42.38
2024-05-09T06:03:41.964Z,41.67
2024-05-09T06:05:44.497Z,40.68
2024-05-09T06:07:46.728Z,41.64
2024-05-09T06:09:50.389Z,42.51
2024-05-09T06:11:52.633Z,41.62
2024-05-09T06:13:54.834Z,41.78
2024-05-09T06:15:56.991Z,42.43
2024-05-09T06:17:59.334Z,41.68
2024-05-09T06:20:01.539Z,42.29
2024-05-09T06:22:03.682Z,41.37
2024-05-09T06:24:06.730Z,40.39
2024-05-09T06:26:08.844Z,41.58
2024-05-09T06:28:11.601Z,42.98
2024-05-09T06:30:24.918Z,41.28
2024-05-09T06:32:31.811Z,41.21
2024-05-09T06:34:33.937Z,40.07
2024-05-09T06:36:36.220Z,37.28
2024-05-09T06:38:38.541Z,37.48
2024-05-09T06:40:43.075Z,38.61
2024-05-09T06:42:46.289Z,39.70
2024-05-09T06:44:48.259Z,37.15
2024-05-09T06:46:50.532Z,37.48
2024-05-09T06:48:54.967Z,38.09
2024-05-09T06:50:57.060Z,37.21
2024-05-09T06:52:59.200Z,34.03
2024-05-09T06:55:01.319Z,35.36
2024-05-09T06:57:03.588Z,35.73
2024-05-09T06:59:06.357Z,35.56
2024-05-09T07:01:08.342Z,34.96
2024-05-09T07:03:16.795Z,34.93
2024-05-09T07:05:20.473Z,33.20
2024-05-09T07:07:22.517Z,34.77
2024-05-09T07:09:24.538Z,36.12
2024-05-09T07:11:26.623Z,36.72
2024-05-09T07:13:28.694Z,35.66
2024-05-09T07:15:31.432Z,35.78
2024-05-09T07:17:33.714Z,34.30
2024-05-09T07:19:35.869Z,35.83
2024-05-09T07:21:37.967Z,34.00
2024-05-09T07:23:40.613Z,32.86
2024-05-09T07:27:45.469Z,31.77
2024-05-09T07:29:47.599Z,32.33
2024-05-09T07:31:50.904Z,32.12
2024-05-09T07:33:53.041Z,32.45
2024-05-09T07:35:57.612Z,32.89
2024-05-09T07:37:59.641Z,32.83
2024-05-09T07:40:03.006Z,32.94
2024-05-09T07:42:06.385Z,32.83
2024-05-09T07:44:08.467Z,32.16
2024-05-09T07:47:13.928Z,34.70
2024-05-09T07:52:33.074Z,32.45
2024-05-09T07:53:37.240Z,32.70
2024-05-09T07:55:35.111Z,33.05
2024-05-09T07:57:37.285Z,31.98
2024-05-09T07:59:39.403Z,32.06
2024-05-09T08:01:41.566Z,31.36
2024-05-09T08:03:43.772Z,31.66
2024-05-09T08:05:45.872Z,32.35
2024-05-09T08:07:47.963Z,32.55
2024-05-09T08:09:50.058Z,32.70
2024-05-09T08:11:52.654Z,31.91
2024-05-09T08:13:55.027Z,31.95
2024-05-09T08:15:57.081Z,30.82
2024-05-09T08:17:59.362Z,31.75
2024-05-09T08:20:04.398Z,30.40
2024-05-09T08:22:07.802Z,31.21
2024-05-09T08:24:09.827Z,29.97
2024-05-09T08:26:11.861Z,30.03
2024-05-09T08:28:14.196Z,31.45
2024-05-09T08:30:22.041Z,30.98
2024-05-09T08:32:31.783Z,30.98
2024-05-09T08:34:33.958Z,31.54
2024-05-09T08:36:36.098Z,31.30
2024-05-09T08:38:38.531Z,32.41
2024-05-09T08:40:41.996Z,31.55
2024-05-09T08:42:49.169Z,32.57
2024-05-09T08:44:52.467Z,30.48
2024-05-09T08:46:54.781Z,29.72
2024-05-09T08:48:58.022Z,29.50
2024-05-09T08:51:00.234Z,30.17
2024-05-09T08:53:02.619Z,29.10
2024-05-09T08:55:05.022Z,31.54
2024-05-09T08:57:08.379Z,29.31
2024-05-09T08:59:13.637Z,30.88
2024-05-09T09:01:18.262Z,30.29
2024-05-09T09:03:28.006Z,31.63
2024-05-09T09:05:33.527Z,30.19
2024-05-09T09:07:39.441Z,31.20
2024-05-09T09:09:45.108Z,29.47
2024-05-09T09:11:47.439Z,28.65
2024-05-09T09:13:50.041Z,28.09
2024-05-09T09:15:52.760Z,30.18
2024-05-09T09:17:57.772Z,30.55
2024-05-09T09:20:00.881Z,29.36
2024-05-09T09:22:04.029Z,30.78
2024-05-09T09:24:07.515Z,30.09
2024-05-09T09:26:16.036Z,31.50
2024-05-09T09:28:18.285Z,30.85
2024-05-09T09:30:31.772Z,29.71
2024-05-09T09:32:38.922Z,30.17
2024-05-09T09:34:40.974Z,30.06
2024-05-09T09:36:44.154Z,29.75
2024-05-09T09:38:47.631Z,30.80
2024-05-09T09:40:51.029Z,31.15
2024-05-09T09:42:57.858Z,30.72
2024-05-09T09:45:05.071Z,28.72
2024-05-09T09:47:09.688Z,29.79
2024-05-09T09:49:12.178Z,28.89
2024-05-09T09:51:15.233Z,29.29
2024-05-09T09:53:17.813Z,29.56
2024-05-09T09:55:22.008Z,28.83
2024-05-09T09:57:25.046Z,30.02
2024-05-09T09:59:28.289Z,31.08
2024-05-09T10:01:30.511Z,27.99
2024-05-09T10:03:32.858Z,27.96
2024-05-09T10:05:35.704Z,28.06
2024-05-09T10:07:41.802Z,29.24
2024-05-09T10:09:43.884Z,28.74
2024-05-09T10:11:51.965Z,28.42
2024-05-09T10:13:54.730Z,29.01
2024-05-09T10:15:56.883Z,29.40
2024-05-09T10:18:08.033Z,28.01
2024-05-09T10:20:18.288Z,28.20
2024-05-09T10:22:27.540Z,27.85
2024-05-09T10:24:49.294Z,27.38
2024-05-09T10:26:52.768Z,25.69
2024-05-09T10:28:56.582Z,25.68
2024-05-09T10:31:12.390Z,25.66
2024-05-09T10:33:20.202Z,26.45
2024-05-09T10:35:22.856Z,27.84
2024-05-09T10:37:27.596Z,28.19
2024-05-09T10:39:35.761Z,28.92
2024-05-09T10:41:38.431Z,27.50
2024-05-09T10:43:41.345Z,28.50
2024-05-09T10:45:43.413Z,28.18
2024-05-09T10:47:45.731Z,29.49
2024-05-09T10:49:49.125Z,27.99
2024-05-09T10:51:53.560Z,30.06
2024-05-09T10:53:55.579Z,30.58
2024-05-09T10:56:01.362Z,30.46
2024-05-09T10:58:03.422Z,29.91
2024-05-09T11:00:10.184Z,29.22
2024-05-09T11:02:16.861Z,28.74
2024-05-09T11:04:19.098Z,28.99
2024-05-09T11:06:21.381Z,28.49
2024-05-09T11:08:24.044Z,31.79
2024-05-09T11:10:33.390Z,31.69
2024-05-09T11:12:36.772Z,29.38
2024-05-09T11:14:38.870Z,29.87
2024-05-09T11:16:40.864Z,30.91
2024-05-09T11:18:43.336Z,30.78
2024-05-09T11:20:45.880Z,31.45
2024-05-09T11:22:49.846Z,31.03
2024-05-09T11:24:52.176Z,30.94
2024-05-09T11:26:57.220Z,30.93
2024-05-09T11:28:59.916Z,31.49
2024-05-09T11:31:09.785Z,31.02
2024-05-09T11:33:14.874Z,31.20
2024-05-09T11:35:16.966Z,30.67
2024-05-09T11:37:19.298Z,30.54
2024-05-09T11:39:21.451Z,31.13
2024-05-09T11:41:23.414Z,31.52
2024-05-09T11:43:25.544Z,31.22
2024-05-09T11:45:27.612Z,29.61
2024-05-09T11:47:29.726Z,30.06
2024-05-09T11:49:31.859Z,31.03
2024-05-09T11:51:33.910Z,31.05
2024-05-09T11:53:35.938Z,32.28
2024-05-09T11:55:37.905Z,31.49
2024-05-09T11:57:40.038Z,29.50
2024-05-09T11:59:42.257Z,30.19
2024-05-09T12:01:44.351Z,29.70
2024-05-09T12:03:46.657Z,28.35
2024-05-09T12:05:50.287Z,30.09
2024-05-09T12:07:52.981Z,30.06
2024-05-09T12:09:55.061Z,29.63
2024-05-09T12:11:57.092Z,29.14
2024-05-09T12:13:59.310Z,28.72
2024-05-09T12:16:01.421Z,28.71
2024-05-09T12:18:04.284Z,29.91
2024-05-09T12:20:14.065Z,29.35
2024-05-09T12:22:20.107Z,28.72
2024-05-09T12:24:22.542Z,28.39
2024-05-09T12:26:24.596Z,29.77
2024-05-09T12:28:26.733Z,29.10
2024-05-09T12:30:36.351Z,30.71
2024-05-09T12:32:41.592Z,30.23
2024-05-09T12:34:43.751Z,28.87
2024-05-09T12:36:45.914Z,29.26
2024-05-09T12:38:48.062Z,28.01
2024-05-09T12:40:50.367Z,28.52
2024-05-09T12:42:52.478Z,28.02
2024-05-09T12:44:54.511Z,28.73
2024-05-09T12:46:56.708Z,30.17
2024-05-09T12:48:58.981Z,30.19
2024-05-09T12:51:01.157Z,30.41
2024-05-09T12:53:04.395Z,30.29
2024-05-09T12:55:06.900Z,30.04
2024-05-09T12:57:09.119Z,30.40
2024-05-09T12:59:11.146Z,30.05
2024-05-09T13:01:13.205Z,30.65
2024-05-09T13:03:15.465Z,31.36
2024-05-09T13:05:17.791Z,29.77
2024-05-09T13:07:20.063Z,29.04
2024-05-09T13:09:22.037Z,29.80
2024-05-09T13:11:24.206Z,29.90
2024-05-09T13:13:26.880Z,31.16
2024-05-09T13:15:30.596Z,29.13
2024-05-09T13:17:33.247Z,30.80
2024-05-09T13:19:35.584Z,29.93
2024-05-09T13:21:37.603Z,30.52
2024-05-09T13:23:39.665Z,28.94
2024-05-09T13:25:41.674Z,28.83
2024-05-09T13:27:43.740Z,29.86
2024-05-09T13:29:45.703Z,30.33
2024-05-09T13:31:47.941Z,30.51
2024-05-09T13:33:50.087Z,30.20
2024-05-09T13:35:52.210Z,29.06
2024-05-09T13:37:54.333Z,29.77
2024-05-09T13:39:56.529Z,28.63
2024-05-09T13:41:58.725Z,30.09
2024-05-09T13:44:00.656Z,30.43
2024-05-09T13:46:02.731Z,28.56
2024-05-09T13:48:05.604Z,29.23
2024-05-09T13:50:11.499Z,29.32
2024-05-09T13:52:16.314Z,28.34
2024-05-09T13:54:21.098Z,28.29
2024-05-09T13:56:26.383Z,29.16
2024-05-09T13:58:29.759Z,29.39
2024-05-09T14:02:44.709Z,27.64
2024-05-09T14:04:49.210Z,26.24
2024-05-09T14:06:51.737Z,28.04
2024-05-09T14:08:53.884Z,29.00
2024-05-09T14:10:55.903Z,29.59
2024-05-09T14:12:58.055Z,28.16
2024-05-09T14:15:00.199Z,28.00
2024-05-09T14:17:02.666Z,27.04
2024-05-09T14:19:05.083Z,27.75
2024-05-09T14:21:07.103Z,27.34
2024-05-09T14:23:09.190Z,25.56
2024-05-09T14:25:11.785Z,25.07
2024-05-09T14:27:14.440Z,26.28
2024-05-09T14:29:16.732Z,27.22
2024-05-09T14:31:20.632Z,28.13
2024-05-09T14:33:23.822Z,28.03
2024-05-09T14:35:26.048Z,28.24
2024-05-09T14:37:28.130Z,27.43
2024-05-09T14:39:30.166Z,27.15
2024-05-09T14:41:32.180Z,26.92
2024-05-09T14:43:34.208Z,27.43
2024-05-09T14:45:36.345Z,26.53
2024-05-09T14:47:38.507Z,26.30
2024-05-09T14:49:40.650Z,25.75
2024-05-09T14:51:46.918Z,26.47
2024-05-09T14:53:48.919Z,26.55
2024-05-09T14:55:51.069Z,26.09
2024-05-09T15:02:55.680Z,24.87
2024-05-09T15:04:58.894Z,26.20
2024-05-09T15:07:01.435Z,25.97
2024-05-09T15:09:04.068Z,26.07
2024-05-09T15:11:06.834Z,26.59
2024-05-09T15:13:10.567Z,26.44
2024-05-09T15:15:14.471Z,26.42
2024-05-09T15:17:16.654Z,26.71
2024-05-09T15:19:19.115Z,26.66
2024-05-09T15:21:21.498Z,26.76
2024-05-09T15:23:24.318Z,26.71
2024-05-09T15:25:26.451Z,26.79
2024-05-09T15:27:28.588Z,27.03
2024-05-09T15:29:30.690Z,25.47
2024-05-09T15:31:32.796Z,25.16
2024-05-09T15:33:34.997Z,26.69
2024-05-09T15:35:37.058Z,26.46
2024-05-09T15:37:39.047Z,28.75
2024-05-09T15:39:41.140Z,29.43
2024-05-09T15:41:43.192Z,29.00
2024-05-09T15:43:45.180Z,30.10
2024-05-09T15:45:47.292Z,30.15
2024-05-09T15:47:49.540Z,29.49
2024-05-09T15:49:51.662Z,29.55
2024-05-09T15:51:53.807Z,29.95
2024-05-09T15:53:55.826Z,30.54
2024-05-09T15:55:58.017Z,30.07
2024-05-09T15:58:01.625Z,32.08
2024-05-09T16:00:05.929Z,32.09
2024-05-09T16:02:09.984Z,32.81
2024-05-09T16:04:13.069Z,33.09
2024-05-09T16:06:15.388Z,32.74
2024-05-09T16:08:17.626Z,33.64
2024-05-09T16:10:22.968Z,33.28
2024-05-09T16:12:28.040Z,33.41
2024-05-09T16:14:33.040Z,33.54
2024-05-09T16:16:35.386Z,33.76
2024-05-09T16:18:37.657Z,33.76
2024-05-09T16:20:41.779Z,34.58
2024-05-09T16:22:45.935Z,34.53
2024-05-09T16:24:48.409Z,34.37
2024-05-09T16:26:50.471Z,33.91
2024-05-09T16:28:52.616Z,33.66
2024-05-09T16:30:54.627Z,34.04
2024-05-09T16:46:36.115Z,33.72
2024-05-09T16:48:38.463Z,33.33
2024-05-09T16:50:40.458Z,33.08
2024-05-09T16:52:42.458Z,33.48
2024-05-09T16:54:44.468Z,33.62
2024-05-09T16:56:46.611Z,33.66
2024-05-09T16:58:57.727Z,33.39
2024-05-09T17:00:59.770Z,33.60
2024-05-09T17:03:01.974Z,33.94
2024-05-09T17:05:05.279Z,33.91
2024-05-09T17:07:07.510Z,34.39
2024-05-09T17:09:11.969Z,34.41
2024-05-09T17:11:17.776Z,34.77
2024-05-09T17:13:20.326Z,34.25
2024-05-09T17:15:22.484Z,35.73
2024-05-09T17:17:24.838Z,36.34
2024-05-09T17:19:27.066Z,36.35
2024-05-09T17:21:49.504Z,36.11
2024-05-09T17:23:51.562Z,36.58
2024-05-09T17:25:53.514Z,37.15
2024-05-09T17:27:55.721Z,37.78
2024-05-09T17:29:58.058Z,37.87
2024-05-09T17:32:00.074Z,38.18
2024-05-09T17:34:02.260Z,37.88
2024-05-09T17:36:07.793Z,38.76
2024-05-09T17:38:10.167Z,38.64
2024-05-09T17:40:16.764Z,38.94
2024-05-09T17:42:19.322Z,38.99
2024-05-09T17:44:21.323Z,39.15
2024-05-09T17:46:23.465Z,39.45
2024-05-09T17:48:25.908Z,39.56
2024-05-09T17:50:34.568Z,39.97
2024-05-09T17:52:38.747Z,39.43
2024-05-09T17:54:40.893Z,40.14
2024-05-09T17:56:42.987Z,39.86
2024-05-09T17:58:45.025Z,39.75
2024-05-09T18:00:47.159Z,40.29
2024-05-09T18:02:49.280Z,39.97
2024-05-09T18:04:51.349Z,39.90
2024-05-09T18:06:53.751Z,40.41
2024-05-09T18:08:55.821Z,40.65
2024-05-09T18:10:57.861Z,40.01
2024-05-09T18:13:00.045Z,40.68
2024-05-09T18:15:02.390Z,40.70
2024-05-09T18:17:04.606Z,40.28
2024-05-09T18:19:06.849Z,40.76
2024-05-09T18:21:09.217Z,41.05
2024-05-09T18:23:11.993Z,40.48
2024-05-09T18:25:14.331Z,40.34
2024-05-09T18:27:17.055Z,40.44
2024-05-09T18:29:22.106Z,40.69
2024-05-09T18:31:24.449Z,40.68
2024-05-09T18:33:26.856Z,41.30
2024-05-09T18:35:28.923Z,41.24
2024-05-09T18:37:31.011Z,40.98
2024-05-09T18:39:33.100Z,40.33
2024-05-09T18:41:35.124Z,40.38
2024-05-09T18:43:42.329Z,40.36
2024-05-09T18:45:47.563Z,40.08
2024-05-09T18:47:49.996Z,40.52
2024-05-09T18:49:52.230Z,40.11
2024-05-09T18:51:54.318Z,40.32
2024-05-09T18:53:56.380Z,39.90
2024-05-09T18:55:58.598Z,40.64
2024-05-09T18:58:00.919Z,41.06
2024-05-09T19:00:04.190Z,41.37
2024-05-09T19:02:07.730Z,40.92
2024-05-09T19:04:10.189Z,41.16
2024-05-09T19:06:12.285Z,41.40
2024-05-09T19:08:15.426Z,41.56
2024-05-09T19:10:22.663Z,41.71
2024-05-09T19:12:28.034Z,41.56
2024-05-09T19:14:30.031Z,41.84
2024-05-09T19:16:32.118Z,41.56
2024-05-09T19:18:34.314Z,41.98
2024-05-09T19:20:37.349Z,42.37
2024-05-09T19:22:39.979Z,42.28
2024-05-09T19:24:41.989Z,42.27
2024-05-09T19:26:45.019Z,42.28
2024-05-09T19:28:47.015Z,41.94
2024-05-09T19:30:49.051Z,42.29
2024-05-09T19:32:51.214Z,42.66
2024-05-09T19:34:53.213Z,42.50
2024-05-09T19:36:55.408Z,42.37
2024-05-09T19:38:57.863Z,42.20
2024-05-09T19:40:59.983Z,42.15
2024-05-09T19:43:03.276Z,42.33
2024-05-09T19:45:07.661Z,42.68
2024-05-09T19:47:09.920Z,45.24
2024-05-09T19:49:12.141Z,45.10
2024-05-09T19:51:14.374Z,46.28
2024-05-09T19:53:16.344Z,46.35
2024-05-09T19:55:18.467Z,46.16
2024-05-09T19:57:20.620Z,45.26
2024-05-09T19:59:22.641Z,45.18
2024-05-09T20:01:24.792Z,44.23
2024-05-09T20:03:27.140Z,43.53
2024-05-09T20:05:31.781Z,43.20
2024-05-09T20:07:36.338Z,42.96
2024-05-09T20:09:38.858Z,42.63
2024-05-09T20:11:40.985Z,42.38
2024-05-09T20:13:42.951Z,41.75
2024-05-09T20:15:45.132Z,41.75
2024-05-09T20:17:47.380Z,41.53
2024-05-09T20:19:49.620Z,43.42
2024-05-09T20:21:51.826Z,44.52
2024-05-09T20:23:53.839Z,44.05
2024-05-09T20:25:55.794Z,43.53
2024-05-09T20:27:57.975Z,43.77
2024-05-09T20:30:00.034Z,43.75
2024-05-09T20:32:02.131Z,43.86
2024-05-09T20:34:04.281Z,43.48
2024-05-09T20:36:06.592Z,43.16
2024-05-09T20:38:08.581Z,42.80
2024-05-09T20:40:18.207Z,42.38
2024-05-09T20:42:26.897Z,41.97
2024-05-09T20:44:28.906Z,42.15
2024-05-09T20:46:30.985Z,42.04
2024-05-09T20:48:33.985Z,42.12
2024-05-09T20:50:40.100Z,41.69
2024-05-09T20:52:44.144Z,41.92
2024-05-09T20:54:46.105Z,42.56
2024-05-09T20:56:48.160Z,41.55
2024-05-09T20:58:50.205Z,41.90
2024-05-09T21:00:52.359Z,41.18
2024-05-09T21:02:54.470Z,41.19
2024-05-09T21:04:56.777Z,40.78
2024-05-09T21:06:58.912Z,41.25
2024-05-09T21:09:00.944Z,41.39
2024-05-09T21:11:03.314Z,40.86
2024-05-09T21:13:06.811Z,41.55
2024-05-09T21:15:09.345Z,41.24
2024-05-09T21:17:11.520Z,41.75
2024-05-09T21:19:13.679Z,42.13
2024-05-09T21:21:15.718Z,42.53
2024-05-09T21:23:17.818Z,43.07
2024-05-09T21:25:19.854Z,42.70
2024-05-09T21:27:21.925Z,42.81
2024-05-09T21:29:23.918Z,42.80
2024-05-09T21:31:25.989Z,42.10
2024-05-09T21:33:28.163Z,41.77
2024-05-09T21:35:30.315Z,42.03
2024-05-09T21:37:32.339Z,42.43
2024-05-09T21:39:34.742Z,42.56
2024-05-09T21:41:36.788Z,43.33
2024-05-09T21:43:38.821Z,43.67
2024-05-09T21:45:40.895Z,43.84
2024-05-09T21:47:43.072Z,44.49
2024-05-09T21:49:45.127Z,44.78
2024-05-09T21:51:47.153Z,44.61
2024-05-09T21:53:49.224Z,44.58
2024-05-09T21:55:51.413Z,44.85
2024-05-09T21:57:53.378Z,46.25
2024-05-09T21:59:55.416Z,46.35
2024-05-09T22:01:57.498Z,46.53
2024-05-09T22:03:59.793Z,45.95
2024-05-09T22:06:02.005Z,46.57
2024-05-09T22:08:04.162Z,46.77
2024-05-09T22:10:12.847Z,46.78
2024-05-09T22:12:21.795Z,46.51
2024-05-09T22:14:25.399Z,45.92
2024-05-09T22:16:27.401Z,47.04
2024-05-09T22:18:29.640Z,51.77
2024-05-09T22:20:37.174Z,54.14
2024-05-09T22:22:41.235Z,55.00
2024-05-09T22:24:43.264Z,53.01
2024-05-09T22:26:45.280Z,52.78
2024-05-09T22:28:47.209Z,52.32
2024-05-09T22:30:49.202Z,53.26
2024-05-09T22:32:51.282Z,52.63
2024-05-09T22:34:53.355Z,51.66
2024-05-09T22:36:55.616Z,52.80
2024-05-09T22:38:57.613Z,53.15
2024-05-09T22:40:59.739Z,54.08
2024-05-09T22:43:02.005Z,52.81
2024-05-09T22:45:04.191Z,51.68
2024-05-09T22:47:06.283Z,51.73
2024-05-09T22:49:08.396Z,50.92
2024-05-09T22:51:10.401Z,50.32
2024-05-09T22:53:12.465Z,50.25
2024-05-09T22:55:14.679Z,51.09
2024-05-09T22:57:16.662Z,51.01
2024-05-09T22:59:18.575Z,50.88
2024-05-09T23:01:21.877Z,51.55
2024-05-09T23:03:28.111Z,51.84
2024-05-09T23:05:31.395Z,51.63
2024-05-09T23:07:33.532Z,51.64
2024-05-09T23:09:35.491Z,52.00
2024-05-09T23:11:41.246Z,51.99
2024-05-09T23:13:43.660Z,51.92
2024-05-09T23:15:45.639Z,51.42
2024-05-09T23:17:47.810Z,51.26
2024-05-09T23:19:49.920Z,52.30
2024-05-09T23:21:51.919Z,52.59
2024-05-09T23:23:53.968Z,53.36
2024-05-09T23:25:55.924Z,53.57
2024-05-09T23:27:57.943Z,54.28
2024-05-09T23:29:59.870Z,54.38
2024-05-09T23:32:01.812Z,54.33
2024-05-09T23:34:03.997Z,54.39
2024-05-09T23:36:06.369Z,55.35
2024-05-09T23:38:08.302Z,55.74
2024-05-09T23:40:15.148Z,55.83
2024-05-09T23:42:20.432Z,55.44
2024-05-09T23:44:22.386Z,55.26
2024-05-09T23:46:25.480Z,54.74
2024-05-09T23:48:27.739Z,54.40
2024-05-09T23:50:35.118Z,54.24
2024-05-09T23:52:39.649Z,54.38
2024-05-09T23:54:41.639Z,54.47
2024-05-09T23:56:43.601Z,53.82
2024-05-09T23:58:46.691Z,53.83
